Time;durP1;ratioP1;P1;durP2;ratioP2;P2;SDS_P1;SDS_P2;PMS_P1;PMS_P2;Temp;Humidity;BMP_temperature;BMP_pressure;BME280_temperature;BME280_humidity;BME280_pressure;Samples;Min_cycle;Max_cycle;Signal;HPM_P1;HPM_P2
2022/06/08 00:00:47;;;;;;;2.83;2.63;;;;;;;;;;5093436;28;20414;-67
2022/06/08 00:03:18;;;;;;;3.30;3.00;;;;;;;;;;5093458;28;20407;-68
2022/06/08 00:05:45;;;;;;;9.00;3.20;;;;;;;;;;5093389;28;20521;-67
2022/06/08 00:08:11;;;;;;;5.10;2.70;;;;;;;;;;5093273;28;20403;-67
2022/06/08 00:10:37;;;;;;;4.37;3.10;;;;;;;;;;5093368;28;20405;-69
2022/06/08 00:13:03;;;;;;;5.80;2.77;;;;;;;;;;5093246;28;20891;-68
2022/06/08 00:15:29;;;;;;;3.10;2.90;;;;;;;;;;5093188;28;20465;-67
2022/06/08 00:17:56;;;;;;;4.47;2.70;;;;;;;;;;5093280;28;20398;-67
2022/06/08 00:20:22;;;;;;;4.00;2.87;;;;;;;;;;5093442;28;20448;-67
2022/06/08 00:22:48;;;;;;;4.07;3.00;;;;;;;;;;5093463;28;20440;-67
2022/06/08 00:25:14;;;;;;;2.90;2.70;;;;;;;;;;5093265;28;20949;-68
2022/06/08 00:27:40;;;;;;;6.57;3.10;;;;;;;;;;5093130;28;20390;-69
2022/06/08 00:30:07;;;;;;;2.73;2.53;;;;;;;;;;5093039;28;20498;-69
2022/06/08 00:32:35;;;;;;;5.70;2.90;;;;;;;;;;5093115;28;20383;-69
2022/06/08 00:35:01;;;;;;;2.70;2.50;;;;;;;;;;5092953;28;20464;-68
2022/06/08 00:37:27;;;;;;;9.90;3.10;;;;;;;;;;5093323;28;20398;-67
2022/06/08 00:39:53;;;;;;;2.87;2.67;;;;;;;;;;5093102;28;20487;-66
2022/06/08 00:42:20;;;;;;;4.03;3.60;;;;;;;;;;5093054;28;20516;-67
2022/06/08 00:44:47;;;;;;;3.23;2.90;;;;;;;;;;5094508;28;20395;-67
2022/06/08 00:47:20;;;;;;;5.17;2.50;;;;;;;;;;5096678;28;20871;-69
2022/06/08 00:49:52;;;;;;;4.07;2.90;;;;;;;;;;5096640;28;20426;-67
2022/06/08 00:52:19;;;;;;;2.50;2.40;;;;;;;;;;5096541;28;20417;-67
2022/06/08 00:54:47;;;;;;;5.90;2.60;;;;;;;;;;5096515;28;20532;-68
2022/06/08 00:57:20;;;;;;;3.00;2.73;;;;;;;;;;5096743;28;20555;-69
2022/06/08 00:59:58;;;;;;;3.13;2.87;;;;;;;;;;5096700;28;20401;-70
2022/06/08 01:02:24;;;;;;;3.27;2.37;;;;;;;;;;5096432;28;20401;-71
2022/06/08 01:04:50;;;;;;;2.80;2.57;;;;;;;;;;5096287;28;20470;-70
2022/06/08 01:07:20;;;;;;;6.20;2.90;;;;;;;;;;5096377;28;20960;-69
2022/06/08 01:09:47;;;;;;;5.90;3.23;;;;;;;;;;5096283;28;20404;-70
2022/06/08 01:12:20;;;;;;;3.83;3.13;;;;;;;;;;5096227;28;20393;-70
2022/06/08 01:14:48;;;;;;;4.33;2.13;;;;;;;;;;5095278;28;20457;-70
2022/06/08 01:17:16;;;;;;;2.80;2.67;;;;;;;;;;5096074;28;20402;-71
2022/06/08 01:19:47;;;;;;;3.20;3.00;;;;;;;;;;5096035;28;20394;-69
2022/06/08 01:22:18;;;;;;;3.87;2.70;;;;;;;;;;5095966;28;20404;-71
2022/06/08 01:24:49;;;;;;;3.87;2.80;;;;;;;;;;5094751;28;20414;-71
2022/06/08 01:27:15;;;;;;;3.47;2.30;;;;;;;;;;5095964;28;20406;-68
2022/06/08 01:30:00;;;;;;;2.87;2.67;;;;;;;;;;5095781;28;20867;-71
2022/06/08 01:32:33;;;;;;;2.53;2.53;;;;;;;;;;5095582;28;20408;-68
2022/06/08 01:34:59;;;;;;;2.80;2.70;;;;;;;;;;5095976;28;20477;-69
2022/06/08 01:37:25;;;;;;;2.90;2.70;;;;;;;;;;5094664;28;20397;-70
2022/06/08 01:39:51;;;;;;;3.00;2.90;;;;;;;;;;5095745;28;20478;-69
2022/06/08 01:42:39;;;;;;;3.13;2.80;;;;;;;;;;5095723;28;20809;-70
2022/06/08 01:45:29;;;;;;;2.93;2.73;;;;;;;;;;5095158;28;20500;-70
2022/06/08 01:48:00;;;;;;;4.17;2.97;;;;;;;;;;5095758;28;20418;-70
2022/06/08 01:50:32;;;;;;;3.17;2.97;;;;;;;;;;5095471;28;20798;-68
2022/06/08 01:53:11;;;;;;;7.13;3.33;;;;;;;;;;5095410;28;20409;-69
2022/06/08 01:55:47;;;;;;;6.40;3.60;;;;;;;;;;5095094;28;20461;-69
2022/06/08 01:58:19;;;;;;;3.30;3.03;;;;;;;;;;5095355;28;20397;-70
2022/06/08 02:00:49;;;;;;;4.23;3.50;;;;;;;;;;5095271;28;20409;-69
2022/06/08 02:03:14;;;;;;;5.83;3.00;;;;;;;;;;5095451;28;20402;-70
2022/06/08 02:05:44;;;;;;;9.27;3.60;;;;;;;;;;5095221;28;20402;-70
2022/06/08 02:08:16;;;;;;;3.23;2.43;;;;;;;;;;5095133;28;20402;-69
2022/06/08 02:10:42;;;;;;;2.90;2.80;;;;;;;;;;5095081;28;20405;-69
2022/06/08 02:13:24;;;;;;;6.73;2.60;;;;;;;;;;5095007;28;20391;-70
2022/06/08 02:15:52;;;;;;;4.33;3.50;;;;;;;;;;5095143;28;20480;-69
2022/06/08 02:18:39;;;;;;;2.87;2.77;;;;;;;;;;5094875;28;20395;-69
2022/06/08 02:21:08;;;;;;;2.70;2.60;;;;;;;;;;5094896;28;20398;-69
2022/06/08 02:23:41;;;;;;;9.33;3.17;;;;;;;;;;5094807;28;20396;-70
2022/06/08 02:26:13;;;;;;;4.53;3.40;;;;;;;;;;5094832;28;20510;-68
2022/06/08 02:28:54;;;;;;;3.40;3.03;;;;;;;;;;5094546;28;20391;-69
2022/06/08 02:31:22;;;;;;;3.63;3.20;;;;;;;;;;5094659;28;20497;-69
2022/06/08 02:36:43;;;;;;;3.07;2.90;;;;;;;;;;5094632;28;20499;-69
2022/06/08 02:39:19;;;;;;;6.60;3.07;;;;;;;;;;5094482;28;20403;-69
2022/06/08 02:41:47;;;;;;;6.53;3.60;;;;;;;;;;5094403;28;20908;-69
2022/06/08 02:44:16;;;;;;;5.57;3.50;;;;;;;;;;5094785;28;20395;-69
2022/06/08 02:46:55;;;;;;;3.50;3.30;;;;;;;;;;5094366;28;20924;-69
2022/06/08 02:49:21;;;;;;;9.83;3.17;;;;;;;;;;5094364;28;20870;-69
2022/06/08 02:51:49;;;;;;;2.93;2.73;;;;;;;;;;5094243;28;20410;-68
2022/06/08 02:54:18;;;;;;;3.47;3.10;;;;;;;;;;5094169;28;20476;-68
2022/06/08 02:56:50;;;;;;;8.03;3.17;;;;;;;;;;5094423;28;20418;-68
2022/06/08 02:59:23;;;;;;;4.00;2.80;;;;;;;;;;5094151;28;20406;-69
2022/06/08 03:02:01;;;;;;;5.50;3.20;;;;;;;;;;5094139;28;20418;-69
2022/06/08 03:04:30;;;;;;;3.60;3.30;;;;;;;;;;5094314;28;20608;-69
2022/06/08 03:07:05;;;;;;;11.80;3.73;;;;;;;;;;5093503;28;20398;-69
2022/06/08 03:09:33;;;;;;;3.50;3.30;;;;;;;;;;5094001;28;21009;-69
2022/06/08 03:12:04;;;;;;;7.93;3.63;;;;;;;;;;5093952;28;20398;-69
2022/06/08 03:14:31;;;;;;;3.53;3.17;;;;;;;;;;5093850;28;20414;-70
2022/06/08 03:16:58;;;;;;;10.37;3.23;;;;;;;;;;5093955;28;20836;-68
2022/06/08 03:19:25;;;;;;;3.33;3.10;;;;;;;;;;5093905;28;20403;-69
2022/06/08 03:21:51;;;;;;;4.30;2.80;;;;;;;;;;5092561;28;20434;-70
2022/06/08 03:24:17;;;;;;;3.93;3.37;;;;;;;;;;5093796;28;20759;-69
2022/06/08 03:26:46;;;;;;;5.07;3.43;;;;;;;;;;5093764;28;20820;-68
2022/06/08 03:29:12;;;;;;;4.13;2.87;;;;;;;;;;5093610;28;20469;-70
2022/06/08 03:31:38;;;;;;;2.83;2.73;;;;;;;;;;5093673;28;20410;-69
2022/06/08 03:34:04;;;;;;;4.87;2.90;;;;;;;;;;5093758;28;20402;-69
2022/06/08 03:36:30;;;;;;;3.20;3.00;;;;;;;;;;5093605;28;20518;-69
2022/06/08 03:38:56;;;;;;;8.93;3.70;;;;;;;;;;5093666;28;20866;-69
2022/06/08 03:41:22;;;;;;;6.40;3.70;;;;;;;;;;5093610;28;20413;-69
2022/06/08 03:43:48;;;;;;;4.53;3.00;;;;;;;;;;5093396;28;20425;-69
2022/06/08 03:46:14;;;;;;;3.17;3.03;;;;;;;;;;5093590;28;20764;-70
2022/06/08 03:48:40;;;;;;;6.30;3.50;;;;;;;;;;5093537;28;20407;-69
2022/06/08 03:51:08;;;;;;;12.53;4.30;;;;;;;;;;5093525;28;20393;-69
2022/06/08 03:53:41;;;;;;;6.30;3.37;;;;;;;;;;5093769;28;20411;-68
2022/06/08 03:56:07;;;;;;;6.40;3.33;;;;;;;;;;5093436;28;20863;-70
2022/06/08 03:58:34;;;;;;;3.63;3.20;;;;;;;;;;5093462;28;20391;-69
2022/06/08 04:01:00;;;;;;;5.83;2.87;;;;;;;;;;5093408;28;20399;-70
2022/06/08 04:03:26;;;;;;;5.87;2.70;;;;;;;;;;5093405;28;20406;-69
2022/06/08 04:05:52;;;;;;;8.03;3.10;;;;;;;;;;5093375;28;20410;-69
2022/06/08 04:08:18;;;;;;;3.80;2.73;;;;;;;;;;5093338;28;20776;-69
2022/06/08 04:10:44;;;;;;;6.90;3.17;;;;;;;;;;5093368;28;20499;-69
2022/06/08 04:13:10;;;;;;;5.00;3.00;;;;;;;;;;5093298;28;20416;-69
2022/06/08 04:15:42;;;;;;;6.10;2.43;;;;;;;;;;5093216;28;20465;-69
2022/06/08 04:18:08;;;;;;;6.03;3.40;;;;;;;;;;5093229;28;20793;-69
2022/06/08 04:20:35;;;;;;;5.17;3.33;;;;;;;;;;5096184;28;20490;-70
2022/06/08 04:23:01;;;;;;;3.57;3.30;;;;;;;;;;5097169;28;20860;-68
2022/06/08 04:25:27;;;;;;;9.93;3.90;;;;;;;;;;5097097;28;20400;-69
2022/06/08 04:27:53;;;;;;;3.37;3.17;;;;;;;;;;5097324;28;20797;-70
2022/06/08 04:30:19;;;;;;;3.27;2.97;;;;;;;;;;5096773;28;20548;-69
2022/06/08 04:32:46;;;;;;;5.20;3.20;;;;;;;;;;5096926;28;20482;-69
2022/06/08 04:35:12;;;;;;;6.10;3.30;;;;;;;;;;5096815;28;21051;-67
2022/06/08 04:37:39;;;;;;;6.97;3.90;;;;;;;;;;5096875;28;20398;-69
2022/06/08 04:40:06;;;;;;;4.50;3.23;;;;;;;;;;5097249;28;20402;-69
2022/06/08 04:42:32;;;;;;;8.30;3.60;;;;;;;;;;5097044;28;20479;-69
2022/06/08 04:44:58;;;;;;;4.50;3.93;;;;;;;;;;5097108;28;20468;-69
2022/06/08 04:47:24;;;;;;;4.63;3.47;;;;;;;;;;5097145;28;20398;-68
2022/06/08 04:49:50;;;;;;;3.30;3.13;;;;;;;;;;5097039;28;20497;-68
2022/06/08 04:52:17;;;;;;;3.57;3.37;;;;;;;;;;5096813;28;20402;-68
2022/06/08 04:54:43;;;;;;;4.07;3.77;;;;;;;;;;5096833;28;20516;-68
2022/06/08 04:57:10;;;;;;;3.73;3.30;;;;;;;;;;5096588;28;20398;-68
2022/06/08 04:59:36;;;;;;;3.60;3.30;;;;;;;;;;5096479;28;20481;-68
2022/06/08 05:02:02;;;;;;;8.40;3.77;;;;;;;;;;5096530;28;20407;-70
2022/06/08 05:04:28;;;;;;;9.73;3.40;;;;;;;;;;5096336;28;20398;-70
2022/06/08 05:06:54;;;;;;;4.53;3.20;;;;;;;;;;5096341;28;20398;-69
2022/06/08 05:09:20;;;;;;;5.07;3.90;;;;;;;;;;5096316;28;20399;-70
2022/06/08 05:11:47;;;;;;;7.07;3.90;;;;;;;;;;5096222;28;20495;-70
2022/06/08 05:14:13;;;;;;;12.03;4.13;;;;;;;;;;5096234;28;20450;-68
2022/06/08 05:16:40;;;;;;;8.53;4.17;;;;;;;;;;5096031;28;20455;-67
2022/06/08 05:19:06;;;;;;;5.70;3.47;;;;;;;;;;5096160;28;20388;-68
2022/06/08 05:21:32;;;;;;;5.40;3.77;;;;;;;;;;5096311;28;20432;-68
2022/06/08 05:23:58;;;;;;;8.80;3.10;;;;;;;;;;5096013;28;20903;-67
2022/06/08 05:26:24;;;;;;;5.97;4.60;;;;;;;;;;5095907;28;20473;-69
2022/06/08 05:28:49;;;;;;;5.10;3.93;;;;;;;;;;5095707;28;20427;-68
2022/06/08 05:31:15;;;;;;;4.67;3.20;;;;;;;;;;5095618;28;20464;-68
2022/06/08 05:33:43;;;;;;;6.53;3.60;;;;;;;;;;5095839;28;20750;-69
2022/06/08 05:36:09;;;;;;;5.30;3.37;;;;;;;;;;5095672;28;21026;-68
2022/06/08 05:38:35;;;;;;;3.00;2.90;;;;;;;;;;5095767;28;20402;-69
2022/06/08 05:41:01;;;;;;;3.50;3.20;;;;;;;;;;5096000;28;20408;-68
2022/06/08 05:43:27;;;;;;;3.53;3.37;;;;;;;;;;5095628;28;20500;-68
2022/06/08 05:45:54;;;;;;;3.80;2.90;;;;;;;;;;5095592;28;20868;-70
2022/06/08 05:48:20;;;;;;;6.20;3.13;;;;;;;;;;5095550;28;20397;-68
2022/06/08 05:50:46;;;;;;;2.40;2.13;;;;;;;;;;5095455;28;20396;-67
2022/06/08 05:53:13;;;;;;;3.20;3.00;;;;;;;;;;5095481;28;20853;-69
2022/06/08 05:55:39;;;;;;;3.30;3.00;;;;;;;;;;5095311;28;20464;-69
2022/06/08 05:58:05;;;;;;;4.00;3.10;;;;;;;;;;5095636;28;20438;-69
2022/06/08 06:00:33;;;;;;;3.10;2.80;;;;;;;;;;5095305;28;20412;-68
2022/06/08 06:02:59;;;;;;;2.60;2.40;;;;;;;;;;5093831;28;20466;-68
2022/06/08 06:05:28;;;;;;;4.00;2.27;;;;;;;;;;5095324;28;20412;-68
2022/06/08 06:07:54;;;;;;;9.83;3.47;;;;;;;;;;5094996;28;20496;-69
2022/06/08 06:10:21;;;;;;;6.13;2.37;;;;;;;;;;5095335;28;20448;-69
2022/06/08 06:12:48;;;;;;;5.90;2.80;;;;;;;;;;5095324;28;20385;-68
2022/06/08 06:15:15;;;;;;;8.13;2.73;;;;;;;;;;5095164;28;20457;-68
2022/06/08 06:17:41;;;;;;;3.73;2.77;;;;;;;;;;5095202;28;20408;-72
2022/06/08 06:20:08;;;;;;;8.67;3.40;;;;;;;;;;5094760;28;20484;-69
2022/06/08 06:22:35;;;;;;;4.17;3.50;;;;;;;;;;5094727;28;20873;-69
2022/06/08 06:25:01;;;;;;;8.97;2.97;;;;;;;;;;5093514;28;20909;-69
2022/06/08 06:27:27;;;;;;;5.17;2.70;;;;;;;;;;5093438;28;20510;-70
2022/06/08 06:29:53;;;;;;;6.17;2.80;;;;;;;;;;5094410;28;20477;-68
2022/06/08 06:32:24;;;;;;;10.00;2.23;;;;;;;;;;5094569;28;20402;-68
2022/06/08 06:34:50;;;;;;;5.50;2.37;;;;;;;;;;5094519;28;20460;-67
2022/06/08 06:37:16;;;;;;;2.97;2.50;;;;;;;;;;5094527;28;20413;-68
2022/06/08 06:39:43;;;;;;;2.63;2.27;;;;;;;;;;5094599;28;20460;-69
2022/06/08 06:42:14;;;;;;;2.60;2.40;;;;;;;;;;5093510;28;20429;-69
2022/06/08 06:44:40;;;;;;;2.30;2.10;;;;;;;;;;5094581;28;20416;-70
2022/06/08 06:47:06;;;;;;;5.00;1.83;;;;;;;;;;5094282;28;20410;-69
2022/06/08 06:49:32;;;;;;;4.20;2.03;;;;;;;;;;5094334;28;20489;-69
2022/06/08 06:51:58;;;;;;;4.53;2.00;;;;;;;;;;5093260;28;20450;-70
2022/06/08 06:54:24;;;;;;;2.43;1.43;;;;;;;;;;5094152;28;20185;-68
2022/06/08 06:56:50;;;;;;;1.73;1.53;;;;;;;;;;5094278;28;20409;-69
2022/06/08 06:59:16;;;;;;;3.23;1.60;;;;;;;;;;5094214;28;20977;-68
2022/06/08 07:01:42;;;;;;;2.30;1.83;;;;;;;;;;5094304;28;20478;-74
2022/06/08 07:04:08;;;;;;;2.63;1.57;;;;;;;;;;5094216;28;20397;-69
2022/06/08 07:06:34;;;;;;;3.57;1.67;;;;;;;;;;5094192;28;20806;-69
2022/06/08 07:09:00;;;;;;;4.67;1.50;;;;;;;;;;5094118;28;20408;-69
2022/06/08 07:11:33;;;;;;;2.70;1.50;;;;;;;;;;5094283;28;20412;-69
2022/06/08 07:14:00;;;;;;;3.07;1.67;;;;;;;;;;5093970;28;20398;-68
2022/06/08 07:16:26;;;;;;;2.30;1.37;;;;;;;;;;5093987;28;20461;-68
2022/06/08 07:18:52;;;;;;;1.37;1.37;;;;;;;;;;5094215;28;20403;-68
2022/06/08 07:21:18;;;;;;;2.33;1.60;;;;;;;;;;5093885;28;20801;-68
2022/06/08 07:23:44;;;;;;;2.07;1.73;;;;;;;;;;5093896;28;20754;-68
2022/06/08 07:26:11;;;;;;;2.67;1.40;;;;;;;;;;5093795;28;20414;-68
2022/06/08 07:28:37;;;;;;;1.77;1.63;;;;;;;;;;5093752;28;20397;-68
2022/06/08 07:31:03;;;;;;;3.40;1.77;;;;;;;;;;5093705;28;20418;-67
2022/06/08 07:33:29;;;;;;;2.87;1.77;;;;;;;;;;5093652;28;20448;-68
2022/06/08 07:35:55;;;;;;;2.37;1.70;;;;;;;;;;5093615;28;20800;-67
2022/06/08 07:38:22;;;;;;;4.23;1.87;;;;;;;;;;5093656;28;20395;-68
2022/06/08 07:40:48;;;;;;;1.80;1.70;;;;;;;;;;5075935;28;20431;-68
2022/06/08 07:43:14;;;;;;;4.50;1.67;;;;;;;;;;5093859;28;20432;-68
2022/06/08 07:45:40;;;;;;;5.33;2.20;;;;;;;;;;5093612;28;20860;-68
2022/06/08 07:50:51;;;;;;;4.40;1.80;;;;;;;;;;5093833;28;20540;-68
2022/06/08 07:53:17;;;;;;;1.60;1.33;;;;;;;;;;5094432;28;20410;-68
2022/06/08 07:55:44;;;;;;;2.20;1.57;;;;;;;;;;5097396;28;20467;-67
2022/06/08 07:58:10;;;;;;;2.80;1.33;;;;;;;;;;5097396;28;20398;-67
2022/06/08 08:00:36;;;;;;;4.37;1.83;;;;;;;;;;5097162;28;20394;-67
2022/06/08 08:03:03;;;;;;;3.73;1.90;;;;;;;;;;5096932;28;20391;-67
2022/06/08 08:05:29;;;;;;;1.73;1.63;;;;;;;;;;5096860;28;20401;-67
2022/06/08 08:07:56;;;;;;;3.57;1.77;;;;;;;;;;5096783;28;20391;-68
2022/06/08 08:10:23;;;;;;;3.10;1.57;;;;;;;;;;5096854;28;20426;-68
2022/06/08 08:12:50;;;;;;;4.50;1.60;;;;;;;;;;5097086;28;20424;-68
2022/06/08 08:15:17;;;;;;;3.70;1.80;;;;;;;;;;5096608;28;20838;-67
2022/06/08 08:17:43;;;;;;;6.53;1.90;;;;;;;;;;5096833;28;20403;-68
2022/06/08 08:20:10;;;;;;;5.90;1.73;;;;;;;;;;5096847;28;20422;-67
2022/06/08 08:22:36;;;;;;;1.63;1.50;;;;;;;;;;5096404;28;20851;-68
2022/06/08 08:25:02;;;;;;;1.83;1.73;;;;;;;;;;5096362;28;20482;-68
2022/06/08 08:27:28;;;;;;;1.80;1.30;;;;;;;;;;5096445;28;20776;-67
2022/06/08 08:29:54;;;;;;;4.27;1.80;;;;;;;;;;5096326;28;20591;-68
2022/06/08 08:32:20;;;;;;;2.83;1.87;;;;;;;;;;5096674;28;20394;-68
2022/06/08 08:34:46;;;;;;;8.23;2.13;;;;;;;;;;5096652;28;20503;-69
2022/06/08 08:37:12;;;;;;;20.57;2.03;;;;;;;;;;5096426;28;20412;-68
2022/06/08 08:39:38;;;;;;;2.30;1.60;;;;;;;;;;5096527;28;20406;-68
2022/06/08 08:42:21;;;;;;;8.97;2.00;;;;;;;;;;5096771;28;20408;-67
2022/06/08 08:44:58;;;;;;;5.80;1.83;;;;;;;;;;5096794;28;20790;-68
2022/06/08 08:47:27;;;;;;;6.00;1.80;;;;;;;;;;5096687;28;20408;-69
2022/06/08 08:49:58;;;;;;;5.87;2.07;;;;;;;;;;5096614;28;20408;-68
2022/06/08 08:52:30;;;;;;;3.90;1.80;;;;;;;;;;5096611;28;20897;-69
2022/06/08 08:55:02;;;;;;;5.40;1.77;;;;;;;;;;5096506;28;20451;-68
2022/06/08 08:57:37;;;;;;;3.57;1.70;;;;;;;;;;5096587;28;20468;-67
2022/06/08 09:00:19;;;;;;;13.33;1.67;;;;;;;;;;5096453;28;20396;-68
2022/06/08 09:05:32;;;;;;;3.57;1.70;;;;;;;;;;5095734;28;20743;-69
2022/06/08 09:07:58;;;;;;;1.43;1.13;;;;;;;;;;5096465;28;20487;-68
2022/06/08 09:10:25;;;;;;;4.40;1.83;;;;;;;;;;5096558;28;20460;-68
2022/06/08 09:12:51;;;;;;;4.17;1.63;;;;;;;;;;5096270;28;20395;-69
2022/06/08 09:15:18;;;;;;;3.90;1.50;;;;;;;;;;5094849;28;20503;-69
2022/06/08 09:17:52;;;;;;;2.00;1.30;;;;;;;;;;5096175;28;20402;-68
2022/06/08 09:20:23;;;;;;;1.13;1.10;;;;;;;;;;5096129;28;20482;-69
2022/06/08 09:22:51;;;;;;;3.37;1.50;;;;;;;;;;5096344;28;20406;-67
2022/06/08 09:25:30;;;;;;;2.40;1.50;;;;;;;;;;5096210;28;20404;-68
2022/06/08 09:27:57;;;;;;;2.87;1.17;;;;;;;;;;5095929;28;20404;-68
2022/06/08 09:30:30;;;;;;;4.10;1.57;;;;;;;;;;5095618;28;20467;-68
2022/06/08 09:32:59;;;;;;;4.03;1.10;;;;;;;;;;5095783;28;20902;-69
2022/06/08 09:35:36;;;;;;;1.90;1.00;;;;;;;;;;5095587;28;21027;-68
2022/06/08 09:38:07;;;;;;;1.30;1.10;;;;;;;;;;5095587;28;20411;-66
2022/06/08 09:40:53;;;;;;;2.60;1.10;;;;;;;;;;5095383;28;20853;-67
2022/06/08 09:43:28;;;;;;;2.20;0.97;;;;;;;;;;5094595;28;20431;-66
2022/06/08 09:45:59;;;;;;;1.90;1.10;;;;;;;;;;5095935;28;20412;-67
2022/06/08 09:51:47;;;;;;;0.70;0.57;;;;;;;;;;5095689;28;20467;-67
2022/06/08 09:54:16;;;;;;;2.73;1.00;;;;;;;;;;5095409;28;20419;-68
2022/06/08 09:56:41;;;;;;;3.37;1.20;;;;;;;;;;5095241;28;20472;-68
2022/06/08 09:59:19;;;;;;;2.20;0.70;;;;;;;;;;5095329;28;20402;-68
2022/06/08 10:01:49;;;;;;;1.37;1.07;;;;;;;;;;5095232;28;20401;-68
2022/06/08 10:04:15;;;;;;;2.50;1.33;;;;;;;;;;5095208;28;20412;-69
2022/06/08 10:07:00;;;;;;;3.33;1.10;;;;;;;;;;5095089;28;20416;-67
2022/06/08 10:09:39;;;;;;;1.30;0.80;;;;;;;;;;5095370;28;20402;-68
2022/06/08 10:12:17;;;;;;;1.87;0.93;;;;;;;;;;5095331;28;20454;-67
2022/06/08 10:14:46;;;;;;;2.83;0.83;;;;;;;;;;5094948;28;20405;-68
2022/06/08 10:17:16;;;;;;;2.10;1.00;;;;;;;;;;5094887;28;20409;-68
2022/06/08 10:19:54;;;;;;;1.13;0.70;;;;;;;;;;5094908;28;20404;-68
2022/06/08 10:22:23;;;;;;;1.47;0.93;;;;;;;;;;5094877;28;20434;-67
2022/06/08 10:24:55;;;;;;;2.87;0.87;;;;;;;;;;5094874;28;20639;-68
2022/06/08 10:27:24;;;;;;;0.97;0.97;;;;;;;;;;5094796;28;20892;-68
2022/06/08 10:29:55;;;;;;;2.23;0.93;;;;;;;;;;5094568;28;20502;-68
2022/06/08 10:32:25;;;;;;;4.87;1.00;;;;;;;;;;5094710;28;20411;-67
2022/06/08 10:34:54;;;;;;;1.63;0.63;;;;;;;;;;5094581;28;20453;-68
2022/06/08 10:37:22;;;;;;;1.80;0.87;;;;;;;;;;5094557;28;20413;-67
2022/06/08 10:39:49;;;;;;;2.93;1.23;;;;;;;;;;5094580;28;20397;-68
2022/06/08 10:42:39;;;;;;;1.00;0.90;;;;;;;;;;5094542;28;20964;-68
2022/06/08 10:45:28;;;;;;;1.00;0.70;;;;;;;;;;5094510;28;20758;-68
2022/06/08 10:47:57;;;;;;;0.93;0.67;;;;;;;;;;5094380;28;20530;-68
2022/06/08 10:50:38;;;;;;;1.83;1.00;;;;;;;;;;5094415;28;20401;-67
2022/06/08 10:56:32;;;;;;;5.30;0.90;;;;;;;;;;5094264;28;20834;-69
2022/06/08 10:59:04;;;;;;;0.70;0.70;;;;;;;;;;5094261;28;20400;-68
2022/06/08 11:01:35;;;;;;;4.20;1.00;;;;;;;;;;5094226;28;20464;-67
2022/06/08 11:04:02;;;;;;;1.80;0.93;;;;;;;;;;5094121;28;20481;-67
2022/06/08 11:06:46;;;;;;;1.43;1.20;;;;;;;;;;5094092;28;20408;-68
2022/06/08 11:09:31;;;;;;;1.10;1.00;;;;;;;;;;5094024;28;20409;-67
2022/06/08 11:12:01;;;;;;;8.30;1.20;;;;;;;;;;5094243;28;20442;-68
2022/06/08 11:14:30;;;;;;;2.00;1.00;;;;;;;;;;5094038;28;20414;-67
2022/06/08 11:17:04;;;;;;;2.10;1.17;;;;;;;;;;5093887;28;20514;-68
2022/06/08 11:19:32;;;;;;;5.83;1.03;;;;;;;;;;5093865;28;20403;-68
2022/06/08 11:22:00;;;;;;;5.80;1.00;;;;;;;;;;5094237;28;20725;-67
2022/06/08 11:24:32;;;;;;;3.70;1.47;;;;;;;;;;5093874;28;20409;-68
2022/06/08 11:27:01;;;;;;;1.37;1.07;;;;;;;;;;5093810;28;20484;-68
2022/06/08 11:29:30;;;;;;;1.20;1.10;;;;;;;;;;5091863;28;20546;-68
2022/06/08 11:31:57;;;;;;;1.00;1.00;;;;;;;;;;5093789;28;20869;-67
2022/06/08 11:34:31;;;;;;;1.77;0.97;;;;;;;;;;5093773;28;20408;-68
2022/06/08 11:37:06;;;;;;;3.30;1.30;;;;;;;;;;5093639;28;20470;-68
2022/06/08 11:39:41;;;;;;;2.53;1.20;;;;;;;;;;5093559;28;20396;-67
2022/06/08 11:42:09;;;;;;;5.03;1.17;;;;;;;;;;5093681;28;20411;-68
2022/06/08 11:44:37;;;;;;;0.67;0.67;;;;;;;;;;5093650;28;20748;-68
2022/06/08 11:47:26;;;;;;;2.20;1.10;;;;;;;;;;5093565;28;20402;-67
2022/06/08 11:49:56;;;;;;;1.83;1.07;;;;;;;;;;5056082;28;20420;-67
2022/06/08 11:52:28;;;;;;;4.53;1.30;;;;;;;;;;5093573;28;20427;-68
2022/06/08 11:55:08;;;;;;;2.17;1.50;;;;;;;;;;5093437;28;20453;-69
2022/06/08 11:57:34;;;;;;;2.10;1.00;;;;;;;;;;5093448;28;20987;-67
2022/06/08 12:00:02;;;;;;;1.90;1.50;;;;;;;;;;5093396;28;20400;-68
2022/06/08 12:02:38;;;;;;;2.40;1.23;;;;;;;;;;5093399;28;20408;-68
2022/06/08 12:05:07;;;;;;;1.57;1.20;;;;;;;;;;5093614;28;20401;-68
2022/06/08 12:07:46;;;;;;;2.50;1.30;;;;;;;;;;5093657;28;20500;-68
2022/06/08 12:10:14;;;;;;;1.93;1.30;;;;;;;;;;5093354;28;20458;-68
2022/06/08 12:12:43;;;;;;;3.80;1.07;;;;;;;;;;5093377;28;20394;-67
2022/06/08 12:15:24;;;;;;;2.53;1.47;;;;;;;;;;5093210;28;20456;-67
2022/06/08 12:17:50;;;;;;;3.63;1.10;;;;;;;;;;5093231;28;20408;-67
2022/06/08 12:20:34;;;;;;;1.73;1.07;;;;;;;;;;5093264;28;20429;-67
2022/06/08 12:23:01;;;;;;;1.37;1.20;;;;;;;;;;5093188;28;20438;-68
2022/06/08 12:25:28;;;;;;;2.63;1.80;;;;;;;;;;5093455;28;20399;-68
2022/06/08 12:28:09;;;;;;;3.33;1.17;;;;;;;;;;5093217;28;20400;-68
2022/06/08 12:30:37;;;;;;;3.30;0.87;;;;;;;;;;5093109;28;20463;-68
2022/06/08 12:33:26;;;;;;;2.50;1.30;;;;;;;;;;5093115;28;20402;-68
2022/06/08 12:36:07;;;;;;;4.70;1.20;;;;;;;;;;5082701;28;20480;-67
2022/06/08 12:38:34;;;;;;;5.97;1.50;;;;;;;;;;5093319;28;20442;-67
2022/06/08 12:41:09;;;;;;;1.17;1.00;;;;;;;;;;5094970;28;20405;-68
2022/06/08 12:43:35;;;;;;;1.20;1.20;;;;;;;;;;5096789;28;20400;-67
2022/06/08 12:46:13;;;;;;;3.37;1.50;;;;;;;;;;5096831;28;20459;-67
2022/06/08 12:48:39;;;;;;;2.73;1.00;;;;;;;;;;5096837;28;20459;-67
2022/06/08 12:51:24;;;;;;;1.63;0.80;;;;;;;;;;5096657;28;20413;-67
2022/06/08 12:53:50;;;;;;;1.97;1.10;;;;;;;;;;5096637;28;20395;-68
2022/06/08 12:56:18;;;;;;;1.80;1.40;;;;;;;;;;5096809;28;20459;-67
2022/06/08 12:58:45;;;;;;;1.20;1.10;;;;;;;;;;5096511;28;20412;-67
2022/06/08 13:01:12;;;;;;;2.33;1.40;;;;;;;;;;5096576;28;20400;-67
2022/06/08 13:03:38;;;;;;;3.03;1.20;;;;;;;;;;5096741;28;20410;-68
2022/06/08 13:06:04;;;;;;;1.73;1.23;;;;;;;;;;5096359;28;20508;-68
2022/06/08 13:08:31;;;;;;;2.00;1.37;;;;;;;;;;5096344;28;20894;-68
2022/06/08 13:11:00;;;;;;;1.40;1.20;;;;;;;;;;5096275;28;20962;-67
2022/06/08 13:13:28;;;;;;;1.10;1.10;;;;;;;;;;5096336;28;20429;-69
2022/06/08 13:15:57;;;;;;;1.73;1.40;;;;;;;;;;5096120;28;20461;-67
2022/06/08 13:18:25;;;;;;;6.20;1.90;;;;;;;;;;5096269;28;20411;-66
2022/06/08 13:20:52;;;;;;;2.00;1.60;;;;;;;;;;5096182;28;20426;-66
2022/06/08 13:23:18;;;;;;;6.67;2.47;;;;;;;;;;5096025;28;20399;-66
2022/06/08 13:25:46;;;;;;;2.93;2.27;;;;;;;;;;5096111;28;20399;-67
2022/06/08 13:28:17;;;;;;;6.97;2.60;;;;;;;;;;5095910;28;20399;-67
2022/06/08 13:30:44;;;;;;;4.37;2.53;;;;;;;;;;5095789;28;20461;-67
2022/06/08 13:33:56;;;;;;;10.27;2.93;;;;;;;;;;5095927;28;20394;-68
2022/06/08 13:35:58;;;;;;;6.83;2.93;;;;;;;;;;5095618;28;20465;-69
2022/06/08 13:38:24;;;;;;;7.63;2.73;;;;;;;;;;5096042;28;20756;-67
2022/06/08 13:40:50;;;;;;;7.17;3.17;;;;;;;;;;5095736;28;20416;-67
2022/06/08 13:43:18;;;;;;;6.87;2.97;;;;;;;;;;5095602;28;20402;-68
2022/06/08 13:45:44;;;;;;;9.90;3.87;;;;;;;;;;5095487;28;20890;-67
2022/06/08 13:48:18;;;;;;;6.43;3.47;;;;;;;;;;5095581;28;20944;-68
2022/06/08 13:50:45;;;;;;;9.43;3.97;;;;;;;;;;5095113;28;20409;-67
2022/06/08 13:53:16;;;;;;;4.33;3.90;;;;;;;;;;5095401;28;20406;-67
2022/06/08 13:55:46;;;;;;;7.30;3.90;;;;;;;;;;5095407;28;20456;-67
2022/06/08 13:58:13;;;;;;;5.87;3.53;;;;;;;;;;5095634;28;20402;-67
2022/06/08 14:00:59;;;;;;;10.50;3.93;;;;;;;;;;5095563;28;20489;-67
2022/06/08 14:03:28;;;;;;;8.50;3.67;;;;;;;;;;5094904;28;20465;-67
2022/06/08 14:14:10;;;;;;;8.30;4.00;;;;;;;;;;5095364;28;20567;-67
2022/06/08 14:16:38;;;;;;;8.67;4.17;;;;;;;;;;5094903;28;20535;-68
2022/06/08 14:19:09;;;;;;;8.30;4.00;;;;;;;;;;5094903;28;20481;-68
2022/06/08 14:21:35;;;;;;;7.67;4.33;;;;;;;;;;5095081;28;20406;-68
2022/06/08 14:24:01;;;;;;;7.50;4.27;;;;;;;;;;5095155;28;20409;-67
2022/06/08 14:26:28;;;;;;;5.13;3.90;;;;;;;;;;5094826;28;20892;-68
2022/06/08 14:28:56;;;;;;;4.53;4.13;;;;;;;;;;5094692;28;20465;-66
2022/06/08 14:31:22;;;;;;;5.53;5.00;;;;;;;;;;5094742;28;20410;-68
2022/06/08 14:33:49;;;;;;;5.40;4.47;;;;;;;;;;5094715;28;20408;-68
2022/06/08 14:36:17;;;;;;;7.70;4.57;;;;;;;;;;5094612;28;20461;-67
2022/06/08 14:38:44;;;;;;;11.20;5.23;;;;;;;;;;5094619;28;20398;-67
2022/06/08 14:41:12;;;;;;;8.83;5.00;;;;;;;;;;5093360;28;20806;-68
2022/06/08 14:43:38;;;;;;;6.87;5.30;;;;;;;;;;5094619;28;20401;-68
2022/06/08 14:46:04;;;;;;;9.83;5.20;;;;;;;;;;5094127;28;20748;-67
2022/06/08 14:48:38;;;;;;;5.30;4.60;;;;;;;;;;5094387;28;20394;-68
2022/06/08 14:51:04;;;;;;;7.70;4.87;;;;;;;;;;5094148;28;20463;-67
2022/06/08 14:53:30;;;;;;;6.50;5.10;;;;;;;;;;5094118;28;20393;-68
2022/06/08 14:58:43;;;;;;;5.13;4.80;;;;;;;;;;5094112;28;20434;-67
2022/06/08 15:01:13;;;;;;;15.73;4.40;;;;;;;;;;5093899;28;20869;-67
2022/06/08 15:03:39;;;;;;;6.27;4.77;;;;;;;;;;5093180;28;20426;-67
2022/06/08 15:06:10;;;;;;;5.77;4.43;;;;;;;;;;5093897;28;20765;-68
2022/06/08 15:08:36;;;;;;;5.03;4.53;;;;;;;;;;5093895;28;20846;-67
2022/06/08 15:13:50;;;;;;;6.40;4.40;;;;;;;;;;5093739;28;20394;-68
2022/06/08 15:16:15;;;;;;;7.13;4.53;;;;;;;;;;5093729;28;20947;-67
2022/06/08 15:18:42;;;;;;;4.33;4.00;;;;;;;;;;5093629;28;20397;-67
2022/06/08 15:21:08;;;;;;;7.77;5.00;;;;;;;;;;5093779;28;20487;-68
2022/06/08 15:23:34;;;;;;;6.70;4.10;;;;;;;;;;5092579;28;20788;-67